San Diego, California
Traffic Map
Current Weather Conditions
San Diego, California
Scattered Clouds
Scattered Clouds
69°
Feels Like: 69°
Wind Chill: 69° Ceiling: Unl
Heat Index: 69° Visibility: 10mi
Dew Point: 62° Wind: 3mph
Humidity: 78% Direction: 320° (NW)
Pressure: 29.91in Gusts: 0mph
Raw Report DataKSAN 300751Z 32003KT 10SM FEW010 SCT170 21/17 A2991 RMK AO2 SLP127 T02060167 402560206 $
Traffic Incident Summary
Active as of:
Severity:
Category:
InformationThere was an issue retrieving the traffic information for this location. Please try a different location or try again shortly.
Advertisements
Track Severe Weather on mobile